createdAt,value
2022-10-21T00:47:22.334Z,5.97
2022-10-21T00:50:00.179Z,5.40
2022-10-21T00:52:31.111Z,6.00
2022-10-21T00:55:03.561Z,5.68
2022-10-21T00:57:34.627Z,5.70
2022-10-21T01:45:29.464Z,5.35
2022-10-21T02:49:59.210Z,4.63
2022-10-21T02:55:40.048Z,4.63
2022-10-21T03:47:02.402Z,4.47
2022-10-21T03:49:31.192Z,4.50
2022-10-21T03:51:59.867Z,4.30
2022-10-21T03:54:28.239Z,4.25
2022-10-21T03:56:57.045Z,4.00
2022-10-21T03:59:25.449Z,3.90
2022-10-21T04:30:24.232Z,4.00
2022-10-21T04:32:52.599Z,3.88
2022-10-21T04:35:20.754Z,3.72
2022-10-21T04:37:49.107Z,4.10
2022-10-21T04:40:17.688Z,3.92
2022-10-21T04:42:49.349Z,3.95
2022-10-21T04:45:18.054Z,3.75
2022-10-21T04:47:47.951Z,3.92
2022-10-21T04:50:16.408Z,3.83
2022-10-21T04:52:44.953Z,4.07
2022-10-21T04:55:13.442Z,3.95
2022-10-21T04:57:42.740Z,3.83
2022-10-21T05:00:12.964Z,4.00
2022-10-21T05:02:41.489Z,3.83
2022-10-21T05:05:11.550Z,3.97
2022-10-21T05:07:40.316Z,3.60
2022-10-21T05:10:09.855Z,3.30
2022-10-21T05:12:38.167Z,3.70
2022-10-21T05:15:07.474Z,3.45
2022-10-21T05:17:36.974Z,3.10
2022-10-21T05:20:07.128Z,3.30
2022-10-21T05:22:37.536Z,3.70
2022-10-21T05:25:07.115Z,3.35
2022-10-21T05:27:35.447Z,3.40
2022-10-21T05:30:04.233Z,3.40
2022-10-21T05:32:32.575Z,3.55
2022-10-21T05:35:00.929Z,3.85
2022-10-21T05:37:29.072Z,3.58
2022-10-21T05:39:58.561Z,3.50
2022-10-21T05:42:27.590Z,3.35
2022-10-21T05:44:55.794Z,3.40
2022-10-21T05:47:24.390Z,3.70
2022-10-21T05:49:52.956Z,3.53
2022-10-21T05:52:21.307Z,3.80
2022-10-21T05:54:49.641Z,3.25
2022-10-21T05:57:19.222Z,3.55
2022-10-21T05:59:47.381Z,3.45
2022-10-21T06:02:15.666Z,3.22
2022-10-21T06:04:43.881Z,3.65
2022-10-21T06:07:12.213Z,3.40
2022-10-21T06:09:40.981Z,3.72
2022-10-21T06:12:09.662Z,3.30
2022-10-21T06:14:39.333Z,3.28
2022-10-21T06:17:07.684Z,5.25
2022-10-21T06:19:36.218Z,5.28
2022-10-21T06:22:04.547Z,6.72
2022-10-21T06:24:33.336Z,7.03
2022-10-21T06:27:01.613Z,6.90
2022-10-21T06:29:29.987Z,6.05
2022-10-21T06:31:59.499Z,6.03
2022-10-21T06:34:27.698Z,5.85
2022-10-21T06:36:55.896Z,5.88
2022-10-21T06:39:24.275Z,6.20
2022-10-21T06:41:52.466Z,6.10
2022-10-21T06:44:40.664Z,6.38
2022-10-21T06:47:10.652Z,5.60
2022-10-21T06:49:39.029Z,5.07
2022-10-21T06:52:07.171Z,5.57
2022-10-21T06:54:35.464Z,5.35
2022-10-21T06:57:05.064Z,5.57
2022-10-21T06:59:33.446Z,5.18
2022-10-21T07:02:01.831Z,5.05
2022-10-21T07:04:31.417Z,4.70
2022-10-21T07:06:59.860Z,5.07
2022-10-21T07:09:28.115Z,4.80
2022-10-21T07:11:56.372Z,5.05
2022-10-21T07:14:25.286Z,4.80
2022-10-21T07:16:53.997Z,4.63
2022-10-21T07:19:22.230Z,4.80
2022-10-21T07:21:52.243Z,4.82
2022-10-21T07:24:22.689Z,4.57
2022-10-21T07:26:52.342Z,5.03
2022-10-21T07:29:21.757Z,5.18
2022-10-21T07:31:50.044Z,5.68
2022-10-21T07:34:18.991Z,5.45
2022-10-21T07:36:52.544Z,5.03
2022-10-21T07:39:27.110Z,5.43
2022-10-21T07:41:58.699Z,4.80
2022-10-21T07:44:27.673Z,4.25
2022-10-21T07:46:56.336Z,4.55
2022-10-21T07:49:25.506Z,4.90
2022-10-21T07:51:54.297Z,4.45
2022-10-21T07:54:24.547Z,4.55
2022-10-21T07:56:53.961Z,4.50
2022-10-21T07:59:23.636Z,4.85
2022-10-21T08:01:53.033Z,4.20
2022-10-21T08:04:29.603Z,4.45
2022-10-21T08:06:58.104Z,4.47
2022-10-21T08:09:27.721Z,4.00
2022-10-21T08:11:57.130Z,3.85
2022-10-21T08:14:25.480Z,4.55
2022-10-21T08:16:54.364Z,4.13
2022-10-21T08:19:29.366Z,4.40
2022-10-21T08:21:59.025Z,4.20
2022-10-21T08:24:29.211Z,4.57
2022-10-21T08:26:57.424Z,4.25
2022-10-21T08:29:25.955Z,4.28
2022-10-21T08:31:54.355Z,4.45
2022-10-21T08:34:22.954Z,4.20
2022-10-21T08:36:51.158Z,4.35
2022-10-21T08:39:19.446Z,4.35
2022-10-21T08:42:02.512Z,4.15
2022-10-21T08:44:40.481Z,4.50
2022-10-21T08:47:18.042Z,4.13
2022-10-21T08:50:03.804Z,4.60
2022-10-21T08:52:40.859Z,4.32
2022-10-21T08:55:18.232Z,3.90
2022-10-21T08:57:49.096Z,4.38
2022-10-21T09:00:20.920Z,4.28
2022-10-21T09:03:18.109Z,4.18
2022-10-21T09:06:26.795Z,4.15
2022-10-21T09:09:08.444Z,3.72
2022-10-21T09:11:50.330Z,4.07
2022-10-21T09:15:11.149Z,4.18
2022-10-21T09:18:15.099Z,3.65
2022-10-21T09:20:57.164Z,3.83
2022-10-21T09:23:59.274Z,3.85
2022-10-21T09:26:41.627Z,3.63
2022-10-21T09:29:28.557Z,3.63
2022-10-21T09:32:13.430Z,4.07
2022-10-21T09:34:50.115Z,3.67
2022-10-21T09:37:30.436Z,3.70
2022-10-21T09:40:13.580Z,3.95
2022-10-21T09:42:47.528Z,3.55
2022-10-21T09:45:25.928Z,3.97
2022-10-21T09:47:59.797Z,3.65
2022-10-21T09:50:29.616Z,3.75
2022-10-21T09:53:09.091Z,3.90
2022-10-21T09:55:41.030Z,3.10
2022-10-21T09:58:24.460Z,3.38
2022-10-21T10:00:53.340Z,3.47
2022-10-21T10:03:35.039Z,3.17
2022-10-21T10:06:05.868Z,3.75
2022-10-21T10:08:40.266Z,3.38
2022-10-21T10:11:18.473Z,3.40
2022-10-21T10:13:49.721Z,3.47
2022-10-21T10:16:23.883Z,3.40
2022-10-21T10:19:11.326Z,3.50
2022-10-21T10:21:40.143Z,3.58
2022-10-21T10:24:18.022Z,3.47
2022-10-21T10:26:47.808Z,3.60
2022-10-21T10:29:26.103Z,3.15
2022-10-21T10:31:58.383Z,3.33
2022-10-21T10:34:34.670Z,3.35
2022-10-21T10:37:15.455Z,3.45
2022-10-21T10:39:47.071Z,3.30
2022-10-21T10:42:19.470Z,3.30
2022-10-21T10:44:48.120Z,3.58
2022-10-21T10:47:24.152Z,3.58
2022-10-21T10:49:53.983Z,3.10
2022-10-21T10:52:24.406Z,3.05
2022-10-21T10:55:18.987Z,3.65
2022-10-21T10:58:05.908Z,3.10
2022-10-21T11:00:47.865Z,3.20
2022-10-21T11:03:26.156Z,3.25
2022-10-21T11:06:05.870Z,3.05
2022-10-21T11:08:40.445Z,3.40
2022-10-21T11:11:15.613Z,3.55
2022-10-21T11:13:44.008Z,3.80
2022-10-21T11:16:50.388Z,3.30
2022-10-21T11:19:31.364Z,3.20
2022-10-21T11:22:13.611Z,3.30
2022-10-21T11:24:57.622Z,3.42
2022-10-21T11:28:10.149Z,3.17
2022-10-21T11:30:55.735Z,3.15
2022-10-21T11:33:35.259Z,3.53
2022-10-21T11:36:14.071Z,4.40
2022-10-21T11:39:26.898Z,30.35
2022-10-21T11:42:01.203Z,41.50
2022-10-21T11:44:45.644Z,100.75
2022-10-21T11:47:23.820Z,162.27
2022-10-21T11:50:01.340Z,156.10
2022-10-21T11:52:42.367Z,155.52
2022-10-21T11:55:32.368Z,145.15
2022-10-21T11:58:14.331Z,112.82
2022-10-21T12:00:50.060Z,96.63
2022-10-21T12:03:48.503Z,75.03
2022-10-21T12:06:31.246Z,67.18
2022-10-21T12:09:03.128Z,53.92
2022-10-21T12:11:42.397Z,60.83
2022-10-21T12:14:30.889Z,76.97
2022-10-21T12:17:02.783Z,56.25
2022-10-21T12:19:31.820Z,75.22
2022-10-21T12:22:00.861Z,73.70
2022-10-21T12:24:45.253Z,67.80
2022-10-21T12:27:24.590Z,65.03
2022-10-21T12:30:03.934Z,58.92
2022-10-21T12:32:41.548Z,57.38
2022-10-21T12:35:15.746Z,57.13
2022-10-21T12:38:08.409Z,55.20
2022-10-21T12:40:41.056Z,56.25
2022-10-21T12:43:23.798Z,52.80
2022-10-21T12:46:07.036Z,53.58
2022-10-21T12:48:39.731Z,52.40
2022-10-21T12:51:20.806Z,51.10
2022-10-21T12:56:32.958Z,51.35
2022-10-21T12:59:06.188Z,49.40
2022-10-21T13:01:45.130Z,48.53
2022-10-21T13:04:50.221Z,47.35
2022-10-21T13:07:40.729Z,47.60
2022-10-21T13:10:27.460Z,45.75
2022-10-21T13:13:31.938Z,46.35
2022-10-21T13:16:26.136Z,46.25
2022-10-21T13:18:57.606Z,44.92
2022-10-21T13:21:36.667Z,45.00
2022-10-21T13:24:28.007Z,42.63
2022-10-21T13:26:58.588Z,43.22
2022-10-21T13:29:45.490Z,43.42
2022-10-21T13:32:28.570Z,42.95
2022-10-21T13:35:36.719Z,42.22
2022-10-21T13:38:19.406Z,43.10
2022-10-21T13:40:51.498Z,41.78
2022-10-21T13:43:28.907Z,41.60
2022-10-21T13:46:06.695Z,40.30
2022-10-21T13:48:42.136Z,39.63
2022-10-21T13:51:20.653Z,37.97
2022-10-21T13:53:49.957Z,36.20
2022-10-21T13:56:24.335Z,37.47
2022-10-21T13:58:53.217Z,37.95
2022-10-21T14:01:25.573Z,36.15
2022-10-21T14:04:12.200Z,37.08
2022-10-21T14:06:47.643Z,32.22
2022-10-21T14:09:20.617Z,27.92
2022-10-21T14:11:52.570Z,23.70
2022-10-21T14:14:25.095Z,19.55
2022-10-21T14:16:57.696Z,18.30
2022-10-21T14:19:30.543Z,18.23
2022-10-21T14:22:01.304Z,18.92
2022-10-21T14:24:40.160Z,18.88
2022-10-21T14:27:11.675Z,18.23
2022-10-21T14:29:41.649Z,18.67
2022-10-21T14:32:13.810Z,17.15
2022-10-21T14:35:03.225Z,17.80
2022-10-21T14:37:37.342Z,17.52
2022-10-21T14:40:21.549Z,17.02
2022-10-21T14:42:53.319Z,17.20
2022-10-21T14:45:29.038Z,16.85
2022-10-21T14:48:09.168Z,17.48
2022-10-21T14:50:41.042Z,16.83
2022-10-21T14:53:18.947Z,16.30
2022-10-21T14:55:48.447Z,16.63
2022-10-21T14:58:23.087Z,16.58
2022-10-21T15:00:57.232Z,16.33
2022-10-21T15:03:42.193Z,17.48
2022-10-21T15:06:15.563Z,15.73
2022-10-21T15:08:59.383Z,15.93
2022-10-21T15:11:42.296Z,15.63
2022-10-21T15:14:23.958Z,16.20
2022-10-21T15:16:55.790Z,15.55
2022-10-21T15:19:28.398Z,14.80
2022-10-21T15:22:03.696Z,14.00
2022-10-21T15:24:45.069Z,14.75
2022-10-21T15:27:20.346Z,14.43
2022-10-21T15:29:49.613Z,13.60
2022-10-21T15:32:25.460Z,13.68
2022-10-21T15:34:57.933Z,13.55
2022-10-21T15:37:27.652Z,14.00
2022-10-21T15:39:55.834Z,13.25
2022-10-21T15:42:24.170Z,13.18
2022-10-21T15:44:52.827Z,13.43
2022-10-21T15:47:21.098Z,12.43
2022-10-21T15:49:49.489Z,13.63
2022-10-21T15:52:17.974Z,14.23
2022-10-21T15:54:47.553Z,13.20
2022-10-21T15:57:19.129Z,13.63
2022-10-21T15:59:48.148Z,13.40
2022-10-21T16:02:18.138Z,12.90
2022-10-21T16:04:46.834Z,11.43
2022-10-21T16:07:24.842Z,12.82
2022-10-21T16:09:54.758Z,12.52
2022-10-21T16:12:23.498Z,12.30
2022-10-21T16:14:51.997Z,12.07
2022-10-21T16:17:20.728Z,12.23
2022-10-21T16:19:48.992Z,13.10
2022-10-21T16:22:23.854Z,12.77
2022-10-21T16:24:52.116Z,12.32
2022-10-21T16:27:31.004Z,12.23
2022-10-21T16:30:19.427Z,12.27
2022-10-21T16:32:48.023Z,11.38
2022-10-21T16:35:18.142Z,13.27
2022-10-21T16:37:47.505Z,11.48
2022-10-21T16:40:20.931Z,12.18
2022-10-21T16:42:51.896Z,12.27
2022-10-21T16:45:23.368Z,12.35
2022-10-21T16:47:56.722Z,12.90
2022-10-21T16:50:30.884Z,12.38
2022-10-21T16:53:02.051Z,12.68
2022-10-21T16:55:30.459Z,13.73
2022-10-21T16:58:00.551Z,13.88
2022-10-21T17:00:29.203Z,13.90
2022-10-21T17:02:59.078Z,14.18
2022-10-21T17:05:27.653Z,14.10
2022-10-21T17:07:57.072Z,14.60
2022-10-21T17:10:25.320Z,13.70
2022-10-21T17:12:58.777Z,14.32
2022-10-21T17:15:29.313Z,13.50
2022-10-21T17:17:57.592Z,13.30
2022-10-21T17:20:30.369Z,13.40
2022-10-21T17:22:59.655Z,13.48
2022-10-21T17:25:28.646Z,13.63
2022-10-21T17:27:57.066Z,13.25
2022-10-21T17:30:25.546Z,12.98
2022-10-21T17:32:55.236Z,12.07
2022-10-21T17:35:23.823Z,197.93
2022-10-21T17:37:53.582Z,311.73
2022-10-21T17:40:24.716Z,268.50
2022-10-21T17:42:53.506Z,262.10
2022-10-21T17:45:23.251Z,258.75
2022-10-21T17:47:52.787Z,244.70
2022-10-21T17:50:24.448Z,246.52
2022-10-21T17:52:53.445Z,214.20
2022-10-21T17:55:22.355Z,184.50
2022-10-21T17:57:50.723Z,165.88
2022-10-21T18:00:19.241Z,163.70
2022-10-21T18:02:47.546Z,148.45
2022-10-21T18:05:16.813Z,113.32
2022-10-21T18:07:46.543Z,108.95
2022-10-21T18:10:15.120Z,107.78
2022-10-21T18:12:43.409Z,105.63
2022-10-21T18:15:12.414Z,88.43
2022-10-21T18:17:41.111Z,71.32
2022-10-21T18:20:11.251Z,50.88
2022-10-21T18:22:39.849Z,41.92
2022-10-21T18:25:10.955Z,37.47
2022-10-21T18:27:40.221Z,37.05
2022-10-21T18:30:10.833Z,37.75
2022-10-21T18:32:39.547Z,34.28
2022-10-21T18:35:09.785Z,35.30
2022-10-21T18:37:38.561Z,35.90
2022-10-21T18:40:10.861Z,34.40
2022-10-21T18:42:39.222Z,33.40
2022-10-21T18:45:09.246Z,34.25
2022-10-21T18:47:37.916Z,36.53
2022-10-21T18:50:08.425Z,34.00
2022-10-21T18:52:36.721Z,33.60
2022-10-21T18:57:36.473Z,34.60
2022-10-21T19:00:07.222Z,31.38
2022-10-21T19:02:35.912Z,32.72
2022-10-21T19:05:04.788Z,32.33
2022-10-21T19:07:33.876Z,31.60
2022-10-21T19:10:06.511Z,30.85
2022-10-21T19:12:36.640Z,26.85
2022-10-21T19:15:06.789Z,27.60
2022-10-21T19:17:35.627Z,26.02
2022-10-21T19:20:04.252Z,24.70
2022-10-21T19:22:32.547Z,25.00
2022-10-21T19:25:00.908Z,25.45
2022-10-21T19:27:29.526Z,24.38
2022-10-21T19:29:59.126Z,25.38
2022-10-21T19:32:27.292Z,24.80
2022-10-21T19:34:55.533Z,24.77
2022-10-21T19:37:24.950Z,24.75
2022-10-21T19:39:53.143Z,23.80
2022-10-21T19:42:21.444Z,23.58
2022-10-21T19:44:49.677Z,22.65
2022-10-21T19:47:19.299Z,21.33
2022-10-21T19:49:49.584Z,19.13
2022-10-21T19:52:19.338Z,20.02
2022-10-21T19:54:52.216Z,20.20
2022-10-21T19:57:20.468Z,19.58
2022-10-21T19:59:49.737Z,18.42
2022-10-21T20:02:20.435Z,19.00
2022-10-21T20:04:50.445Z,19.15
2022-10-21T20:07:20.371Z,17.88
2022-10-21T20:09:48.708Z,18.10
2022-10-21T20:12:17.245Z,19.02
2022-10-21T20:14:45.661Z,17.65
2022-10-21T20:17:17.407Z,17.77
2022-10-21T20:19:50.434Z,17.98
2022-10-21T20:22:18.985Z,17.48
2022-10-21T20:24:47.379Z,17.95
2022-10-21T20:27:15.694Z,18.02
2022-10-21T20:29:43.953Z,17.55
2022-10-21T20:32:12.262Z,18.05
2022-10-21T20:34:43.047Z,18.25
2022-10-21T20:37:12.622Z,17.92
2022-10-21T20:39:40.956Z,17.95
2022-10-21T20:42:09.431Z,17.35
2022-10-21T20:44:37.794Z,17.35
2022-10-21T20:47:05.997Z,17.83
2022-10-21T20:49:34.308Z,16.73
2022-10-21T20:52:04.260Z,18.02
2022-10-21T20:54:34.231Z,17.52
2022-10-21T20:57:02.910Z,18.08
2022-10-21T20:59:31.657Z,17.27
2022-10-21T21:01:59.830Z,15.98
2022-10-21T21:04:28.129Z,16.33
2022-10-21T21:06:56.337Z,17.63
2022-10-21T21:12:15.731Z,17.17
2022-10-21T21:14:43.976Z,17.80
2022-10-21T21:17:12.247Z,15.57
2022-10-21T21:19:41.273Z,17.00
2022-10-21T21:22:09.710Z,16.45
2022-10-21T21:24:38.094Z,16.80
2022-10-21T21:27:06.355Z,16.27
2022-10-21T21:29:36.710Z,16.25
2022-10-21T21:32:05.987Z,16.10
2022-10-21T21:34:34.719Z,16.10
2022-10-21T21:37:03.049Z,15.32
2022-10-21T21:39:31.463Z,15.65
2022-10-21T21:41:59.600Z,15.85
2022-10-21T21:44:28.025Z,16.98
2022-10-21T21:46:57.747Z,15.32
2022-10-21T21:49:26.114Z,16.45
2022-10-21T21:51:54.366Z,16.33
2022-10-21T21:54:22.871Z,15.88
2022-10-21T21:56:54.441Z,15.00
2022-10-21T21:59:29.836Z,15.73
2022-10-21T22:01:59.758Z,15.15
2022-10-21T22:04:28.822Z,15.57
2022-10-21T22:07:01.914Z,15.15
2022-10-21T22:09:32.595Z,14.82
2022-10-21T22:12:01.494Z,14.57
2022-10-21T22:14:30.259Z,14.77
2022-10-21T22:45:29.133Z,13.30
2022-10-21T22:47:57.485Z,14.20
2022-10-21T22:50:26.010Z,13.80
2022-10-21T22:52:54.488Z,13.70
2022-10-21T22:55:22.993Z,13.73
2022-10-21T22:57:51.637Z,13.30
2022-10-21T23:47:17.123Z,9.68
2022-10-21T23:49:45.380Z,10.02
2022-10-21T23:52:13.537Z,9.13
2022-10-21T23:54:41.838Z,10.23
2022-10-21T23:57:10.108Z,9.88
2022-10-21T23:59:38.345Z,9.27
